createdAt,value
2017-10-31T00:02:34.385Z,48.55
2017-10-31T00:17:34.861Z,48.93
2017-10-31T00:32:42.242Z,49.73
2017-10-31T00:47:34.719Z,50.19
2017-10-31T01:02:34.702Z,50.82
2017-10-31T01:17:36.009Z,51.49
2017-10-31T01:32:37.257Z,52.32
2017-10-31T01:47:37.029Z,52.71
2017-10-31T02:02:39.387Z,53.13
2017-10-31T02:17:35.327Z,53.21
2017-10-31T02:32:35.569Z,52.37
2017-10-31T02:47:35.271Z,52.79
2017-10-31T03:02:35.143Z,53.21
2017-10-31T03:17:34.563Z,53.39
2017-10-31T03:32:37.465Z,53.76
2017-10-31T03:47:34.478Z,54.34
2017-10-31T04:02:35.439Z,54.29
2017-10-31T04:17:34.967Z,53.07
2017-10-31T04:32:36.759Z,53.06
2017-10-31T04:47:36.689Z,53.19
2017-10-31T05:02:36.706Z,53.40
2017-10-31T05:17:39.568Z,52.82
2017-10-31T05:32:37.991Z,49.29
2017-10-31T06:02:36.692Z,37.14
2017-10-31T06:17:35.310Z,33.57
2017-10-31T06:32:40.257Z,31.73
2017-10-31T06:47:37.194Z,30.47
2017-10-31T07:02:37.596Z,29.84
2017-10-31T07:17:38.149Z,27.82
2017-10-31T07:32:35.059Z,27.32
2017-10-31T07:47:38.465Z,26.48
2017-10-31T08:02:35.404Z,25.73
2017-10-31T08:17:39.808Z,25.04
2017-10-31T08:32:35.284Z,24.84
2017-10-31T08:47:35.690Z,24.44
2017-10-31T09:02:36.564Z,24.98
2017-10-31T09:17:37.003Z,25.26
2017-10-31T09:32:37.025Z,25.97
2017-10-31T09:47:35.919Z,26.08
2017-10-31T10:02:36.884Z,26.11
2017-10-31T10:17:37.200Z,25.71
2017-10-31T10:47:35.065Z,26.31
2017-10-31T11:02:34.993Z,26.53
2017-10-31T11:17:34.483Z,26.30
2017-10-31T11:32:35.595Z,27.21
2017-10-31T11:47:35.313Z,27.30
2017-10-31T12:02:34.680Z,28.21
2017-10-31T12:17:34.692Z,28.93
2017-10-31T12:32:34.628Z,29.85
2017-10-31T12:47:34.659Z,30.96
2017-10-31T13:02:35.000Z,31.57
2017-10-31T13:17:34.942Z,31.55
2017-10-31T13:32:35.369Z,32.55
2017-10-31T13:47:35.119Z,33.72
2017-10-31T14:02:34.872Z,34.31
2017-10-31T14:17:35.147Z,34.84
2017-10-31T14:32:35.041Z,35.39
2017-10-31T14:47:35.006Z,35.91
2017-10-31T15:02:34.904Z,36.94
2017-10-31T15:17:34.374Z,37.99
2017-10-31T15:32:35.964Z,38.88
2017-10-31T17:47:34.758Z,44.84
2017-10-31T18:32:35.147Z,46.39
2017-10-31T19:32:37.379Z,48.11
2017-10-31T19:47:34.798Z,48.50
2017-10-31T22:02:34.755Z,50.25
2017-10-31T22:17:37.125Z,50.35
2017-10-31T22:32:37.037Z,50.27
2017-10-31T23:02:34.886Z,50.54
2017-10-31T23:32:35.284Z,51.03
